Time;durP1;ratioP1;P1;durP2;ratioP2;P2;SDS_P1;SDS_P2;PMS_P1;PMS_P2;Temp;Humidity;BMP_temperature;BMP_pressure;BME280_temperature;BME280_humidity;BME280_pressure;Samples;Min_cycle;Max_cycle;Signal;HPM_P1;HPM_P2
2022/11/18 00:01:50;;;;;;;278.20;85.33;;;;;;;;;;4987209;28;20224;-55
2022/11/18 00:04:16;;;;;;;316.60;93.63;;;;;;;;;;4984485;28;20227;-54
2022/11/18 00:06:42;;;;;;;402.33;104.07;;;;;;;;;;4979283;28;20562;-54
2022/11/18 00:09:08;;;;;;;110.37;44.57;;;;;;;;;;4990999;28;20975;-54
2022/11/18 00:14:23;;;;;;;290.53;79.57;;;;;;;;;;4993961;28;20224;-53
2022/11/18 00:16:55;;;;;;;213.10;69.87;;;;;;;;;;4976197;28;20255;-54
2022/11/18 00:19:23;;;;;;;246.33;69.97;;;;;;;;;;4980220;28;20212;-54
2022/11/18 00:21:49;;;;;;;322.90;82.13;;;;;;;;;;4990922;28;20236;-54
2022/11/18 00:24:15;;;;;;;229.43;59.20;;;;;;;;;;4998034;28;20187;-54
2022/11/18 00:26:41;;;;;;;391.77;93.87;;;;;;;;;;4993428;28;20268;-54
2022/11/18 00:29:09;;;;;;;310.87;78.30;;;;;;;;;;4997544;28;20797;-54
2022/11/18 00:31:35;;;;;;;113.40;37.67;;;;;;;;;;4998408;28;20473;-54
2022/11/18 00:34:01;;;;;;;323.40;77.03;;;;;;;;;;4988365;28;20227;-54
2022/11/18 00:36:28;;;;;;;225.33;59.17;;;;;;;;;;4985201;28;20217;-54
2022/11/18 00:38:54;;;;;;;211.60;56.43;;;;;;;;;;4993531;28;20579;-53
2022/11/18 00:41:20;;;;;;;278.50;69.70;;;;;;;;;;4990395;28;20318;-54
2022/11/18 00:43:45;;;;;;;401.27;93.03;;;;;;;;;;4994823;28;20216;-54
2022/11/18 00:46:12;;;;;;;296.10;77.63;;;;;;;;;;4988024;28;20231;-54
2022/11/18 00:48:38;;;;;;;239.80;65.40;;;;;;;;;;4995351;28;20247;-54
2022/11/18 00:51:07;;;;;;;268.27;65.37;;;;;;;;;;4992002;28;20224;-54
2022/11/18 00:53:33;;;;;;;98.40;29.97;;;;;;;;;;4979629;28;20290;-54
2022/11/18 00:55:59;;;;;;;361.23;83.77;;;;;;;;;;4987144;28;20213;-54
2022/11/18 00:58:25;;;;;;;256.43;60.20;;;;;;;;;;4992730;28;20708;-54
2022/11/18 01:00:52;;;;;;;376.40;74.50;;;;;;;;;;4989769;28;20259;-54
2022/11/18 01:03:18;;;;;;;224.90;53.07;;;;;;;;;;4990511;28;20208;-54
2022/11/18 01:05:44;;;;;;;280.97;60.67;;;;;;;;;;4988196;28;20185;-54
2022/11/18 01:08:10;;;;;;;318.40;67.23;;;;;;;;;;4992238;28;20884;-54
2022/11/18 01:10:37;;;;;;;299.13;70.73;;;;;;;;;;4987441;28;20232;-54
2022/11/18 01:13:18;;;;;;;146.47;38.47;;;;;;;;;;4990775;28;20307;-54
2022/11/18 01:15:46;;;;;;;173.27;46.43;;;;;;;;;;4990111;28;20208;-54
2022/11/18 01:18:12;;;;;;;363.77;85.50;;;;;;;;;;4987354;28;20192;-54
2022/11/18 01:20:38;;;;;;;169.97;52.47;;;;;;;;;;4984413;28;20244;-54
2022/11/18 01:23:04;;;;;;;354.13;76.97;;;;;;;;;;4995850;28;20208;-54
2022/11/18 01:25:31;;;;;;;190.43;51.77;;;;;;;;;;4995060;28;20223;-53
2022/11/18 01:27:56;;;;;;;198.03;48.67;;;;;;;;;;4999505;28;20244;-54
2022/11/18 01:30:23;;;;;;;249.63;58.97;;;;;;;;;;5000837;28;20316;-53
2022/11/18 01:32:49;;;;;;;253.23;58.73;;;;;;;;;;4994662;28;20252;-54
2022/11/18 01:35:15;;;;;;;234.43;55.97;;;;;;;;;;4996010;28;20697;-54
2022/11/18 01:37:41;;;;;;;147.17;38.03;;;;;;;;;;4989965;28;20517;-54
2022/11/18 01:40:07;;;;;;;397.30;90.50;;;;;;;;;;4984781;28;20822;-54
2022/11/18 01:42:33;;;;;;;211.80;54.63;;;;;;;;;;4988590;28;21244;-54
2022/11/18 01:45:19;;;;;;;252.63;58.73;;;;;;;;;;4991697;28;20184;-55
2022/11/18 01:47:51;;;;;;;118.50;30.50;;;;;;;;;;4988914;28;20588;-55
2022/11/18 01:50:18;;;;;;;121.57;31.83;;;;;;;;;;4991321;28;20517;-55
2022/11/18 01:52:44;;;;;;;237.60;49.10;;;;;;;;;;4996755;28;20597;-55
2022/11/18 01:55:13;;;;;;;338.60;74.37;;;;;;;;;;4985894;28;22006;-55
2022/11/18 01:57:40;;;;;;;327.90;66.67;;;;;;;;;;4987868;28;20292;-55
2022/11/18 02:00:06;;;;;;;269.17;61.80;;;;;;;;;;4987164;28;20836;-55
2022/11/18 02:02:34;;;;;;;321.07;69.80;;;;;;;;;;4989826;28;20723;-55
2022/11/18 02:05:00;;;;;;;353.30;67.53;;;;;;;;;;4991682;28;20227;-55
2022/11/18 02:07:26;;;;;;;349.07;67.73;;;;;;;;;;4997780;28;20701;-55
2022/11/18 02:09:53;;;;;;;268.10;56.60;;;;;;;;;;4990385;28;22309;-55
2022/11/18 02:12:19;;;;;;;98.50;24.50;;;;;;;;;;4989888;28;20220;-55
2022/11/18 02:14:46;;;;;;;300.77;61.37;;;;;;;;;;4990418;28;20197;-55
2022/11/18 02:17:30;;;;;;;283.97;57.33;;;;;;;;;;4981429;28;20217;-55
2022/11/18 02:20:10;;;;;;;253.90;51.97;;;;;;;;;;4990383;28;20245;-54
2022/11/18 02:22:42;;;;;;;191.30;39.57;;;;;;;;;;4994568;28;20359;-54
2022/11/18 02:25:08;;;;;;;116.03;27.73;;;;;;;;;;4989373;28;20781;-55
2022/11/18 02:27:40;;;;;;;121.40;28.43;;;;;;;;;;4992249;28;20221;-55
2022/11/18 02:30:08;;;;;;;209.83;43.47;;;;;;;;;;4997866;28;20274;-54
2022/11/18 02:32:38;;;;;;;178.17;35.00;;;;;;;;;;5017134;28;20216;-55
2022/11/18 02:35:23;;;;;;;267.43;57.17;;;;;;;;;;4994271;28;20217;-56
2022/11/18 02:37:54;;;;;;;339.00;67.10;;;;;;;;;;4987891;28;20215;-55
2022/11/18 02:40:22;;;;;;;352.23;69.37;;;;;;;;;;4982246;28;20251;-55
2022/11/18 02:42:51;;;;;;;215.87;42.47;;;;;;;;;;4991432;28;20225;-55
2022/11/18 02:45:18;;;;;;;245.57;54.73;;;;;;;;;;4985557;28;20637;-55
2022/11/18 02:47:46;;;;;;;202.87;41.43;;;;;;;;;;4991199;28;20189;-54
2022/11/18 02:50:15;;;;;;;258.10;50.67;;;;;;;;;;4985839;28;20475;-55
2022/11/18 02:52:42;;;;;;;331.53;67.77;;;;;;;;;;4989191;28;20608;-55
2022/11/18 02:55:09;;;;;;;293.10;62.53;;;;;;;;;;4990070;28;20220;-55
2022/11/18 02:57:35;;;;;;;278.20;56.30;;;;;;;;;;4986981;28;20220;-55
2022/11/18 03:00:02;;;;;;;151.33;33.70;;;;;;;;;;4990273;28;20188;-55
2022/11/18 03:02:28;;;;;;;107.93;25.00;;;;;;;;;;4990679;28;20372;-55
2022/11/18 03:04:56;;;;;;;101.83;24.03;;;;;;;;;;4998503;28;20213;-55
2022/11/18 03:07:25;;;;;;;262.30;50.33;;;;;;;;;;4994156;28;20228;-55
2022/11/18 03:09:51;;;;;;;253.80;51.40;;;;;;;;;;4992199;28;20575;-55
2022/11/18 03:12:26;;;;;;;271.87;54.77;;;;;;;;;;4980325;28;20839;-55
2022/11/18 03:15:01;;;;;;;220.23;42.90;;;;;;;;;;4988854;28;20266;-55
2022/11/18 03:17:45;;;;;;;281.73;58.47;;;;;;;;;;4986149;28;20270;-55
2022/11/18 03:20:11;;;;;;;244.87;45.23;;;;;;;;;;4986722;28;20217;-55
2022/11/18 03:22:37;;;;;;;247.50;48.73;;;;;;;;;;4987838;28;20583;-55
2022/11/18 03:25:06;;;;;;;272.93;56.17;;;;;;;;;;4988177;28;20208;-54
2022/11/18 03:27:48;;;;;;;139.27;28.70;;;;;;;;;;4994865;28;20189;-57
2022/11/18 03:30:16;;;;;;;315.27;69.70;;;;;;;;;;4988271;28;20786;-55
2022/11/18 03:32:44;;;;;;;309.47;67.37;;;;;;;;;;4982041;28;20231;-55
2022/11/18 03:35:20;;;;;;;245.93;51.13;;;;;;;;;;4986198;28;20224;-55
2022/11/18 03:37:49;;;;;;;154.43;36.73;;;;;;;;;;4985815;28;20728;-53
2022/11/18 03:40:17;;;;;;;256.00;52.00;;;;;;;;;;4985643;28;20298;-54
2022/11/18 03:42:46;;;;;;;188.50;39.77;;;;;;;;;;4995068;28;20240;-54
2022/11/18 03:45:14;;;;;;;236.67;53.63;;;;;;;;;;4994444;28;20184;-53
2022/11/18 03:47:42;;;;;;;261.67;54.50;;;;;;;;;;4995114;28;20697;-54
2022/11/18 03:50:17;;;;;;;420.60;87.83;;;;;;;;;;4992775;28;20274;-54
2022/11/18 03:52:43;;;;;;;182.37;40.57;;;;;;;;;;4992065;28;20242;-54
2022/11/18 03:55:15;;;;;;;405.80;79.07;;;;;;;;;;4993849;28;21218;-54
2022/11/18 03:57:41;;;;;;;199.60;41.00;;;;;;;;;;4990996;28;20921;-54
2022/11/18 04:00:09;;;;;;;256.97;53.73;;;;;;;;;;4994225;28;20228;-54
2022/11/18 04:02:35;;;;;;;126.23;29.07;;;;;;;;;;4995698;28;20449;-54
2022/11/18 04:05:02;;;;;;;287.73;61.10;;;;;;;;;;4968664;28;20431;-54
2022/11/18 04:07:34;;;;;;;405.63;81.27;;;;;;;;;;4990317;28;20247;-54
2022/11/18 04:10:08;;;;;;;314.30;64.90;;;;;;;;;;4988973;28;20277;-54
2022/11/18 04:12:37;;;;;;;311.53;62.97;;;;;;;;;;4969060;28;20394;-54
2022/11/18 04:15:03;;;;;;;107.50;24.70;;;;;;;;;;4997619;28;21320;-54
2022/11/18 04:17:29;;;;;;;242.00;50.33;;;;;;;;;;4989996;28;20231;-54
2022/11/18 04:19:55;;;;;;;187.70;41.30;;;;;;;;;;4991878;28;20716;-54
2022/11/18 04:22:21;;;;;;;244.63;51.40;;;;;;;;;;5000053;28;20290;-53
2022/11/18 04:24:47;;;;;;;391.20;77.33;;;;;;;;;;4996061;28;20263;-53
2022/11/18 04:27:13;;;;;;;284.47;59.03;;;;;;;;;;4992117;28;20260;-54
2022/11/18 04:29:39;;;;;;;317.63;61.73;;;;;;;;;;4989652;28;20292;-53
2022/11/18 04:32:05;;;;;;;270.10;58.00;;;;;;;;;;4989654;28;20213;-54
2022/11/18 04:34:31;;;;;;;379.23;74.47;;;;;;;;;;4981828;28;20686;-54
2022/11/18 04:36:58;;;;;;;208.87;38.60;;;;;;;;;;5002197;28;20212;-53
2022/11/18 04:39:23;;;;;;;272.67;57.37;;;;;;;;;;4988344;28;20533;-54
2022/11/18 04:41:55;;;;;;;263.87;56.77;;;;;;;;;;4991365;28;20209;-53
2022/11/18 04:44:28;;;;;;;341.13;74.37;;;;;;;;;;4988959;28;20217;-53
2022/11/18 04:46:55;;;;;;;217.37;46.17;;;;;;;;;;4979766;28;20244;-54
2022/11/18 04:49:22;;;;;;;356.07;80.13;;;;;;;;;;4980264;28;20710;-54
2022/11/18 04:51:48;;;;;;;247.73;53.90;;;;;;;;;;4984882;28;20291;-53
2022/11/18 04:54:14;;;;;;;196.80;42.00;;;;;;;;;;4982005;28;20633;-53
2022/11/18 04:56:40;;;;;;;160.63;34.10;;;;;;;;;;4978545;28;20193;-54
2022/11/18 04:59:06;;;;;;;177.57;36.77;;;;;;;;;;4980604;28;20262;-53
2022/11/18 05:01:32;;;;;;;427.93;88.60;;;;;;;;;;4978946;28;20217;-54
2022/11/18 05:04:02;;;;;;;202.63;43.40;;;;;;;;;;4974709;28;20261;-54
2022/11/18 05:06:28;;;;;;;462.10;93.77;;;;;;;;;;4979354;28;20377;-53
2022/11/18 05:08:54;;;;;;;214.27;44.70;;;;;;;;;;4975536;28;20189;-54
2022/11/18 05:14:05;;;;;;;316.40;64.50;;;;;;;;;;4981566;28;20432;-53
2022/11/18 05:16:31;;;;;;;250.73;52.83;;;;;;;;;;4979853;28;20241;-54
2022/11/18 05:18:57;;;;;;;205.13;41.23;;;;;;;;;;4991647;28;20300;-53
2022/11/18 05:21:23;;;;;;;152.50;34.10;;;;;;;;;;4985254;28;20211;-53
2022/11/18 05:23:49;;;;;;;393.80;81.13;;;;;;;;;;4982408;28;20177;-53
2022/11/18 05:26:15;;;;;;;238.20;48.20;;;;;;;;;;4984778;28;20287;-53
2022/11/18 05:28:40;;;;;;;401.83;87.80;;;;;;;;;;4983164;28;20217;-54
2022/11/18 05:31:10;;;;;;;220.10;42.37;;;;;;;;;;4987029;28;20322;-53
2022/11/18 05:33:37;;;;;;;331.17;70.27;;;;;;;;;;4984105;28;20240;-53
2022/11/18 05:36:07;;;;;;;97.57;21.77;;;;;;;;;;4987309;28;20182;-53
2022/11/18 05:38:33;;;;;;;278.60;55.00;;;;;;;;;;4985791;28;20752;-53
2022/11/18 05:41:00;;;;;;;391.57;83.97;;;;;;;;;;4983448;28;20271;-53
2022/11/18 05:43:26;;;;;;;293.90;58.23;;;;;;;;;;4987607;28;20497;-53
2022/11/18 05:45:52;;;;;;;278.53;59.40;;;;;;;;;;4975150;28;20217;-53
2022/11/18 05:48:18;;;;;;;134.43;28.33;;;;;;;;;;4988382;28;20421;-54
2022/11/18 05:50:48;;;;;;;279.90;58.57;;;;;;;;;;4985495;28;20573;-54
2022/11/18 05:53:15;;;;;;;250.33;47.90;;;;;;;;;;4990978;28;20306;-53
2022/11/18 05:55:48;;;;;;;325.50;64.20;;;;;;;;;;4988400;28;20221;-53
2022/11/18 05:58:14;;;;;;;258.80;50.47;;;;;;;;;;4987511;28;20231;-53
2022/11/18 06:00:40;;;;;;;317.47;62.80;;;;;;;;;;4983117;28;20212;-53
2022/11/18 06:03:09;;;;;;;247.30;49.10;;;;;;;;;;4990489;28;20963;-55
2022/11/18 06:05:35;;;;;;;248.57;48.03;;;;;;;;;;4984993;28;20623;-55
2022/11/18 06:08:01;;;;;;;306.37;65.73;;;;;;;;;;4971557;28;20220;-54
2022/11/18 06:10:32;;;;;;;266.97;57.90;;;;;;;;;;4963686;28;20223;-55
2022/11/18 06:12:59;;;;;;;158.60;32.90;;;;;;;;;;4947528;28;1003256;-54
2022/11/18 06:15:27;;;;;;;389.00;76.97;;;;;;;;;;4955133;28;20576;-55
2022/11/18 06:17:56;;;;;;;355.30;71.27;;;;;;;;;;4973247;28;20197;-55
2022/11/18 06:20:22;;;;;;;411.17;95.23;;;;;;;;;;4975324;28;20715;-54
2022/11/18 06:22:50;;;;;;;355.20;77.07;;;;;;;;;;4971739;28;21468;-54
2022/11/18 06:25:16;;;;;;;352.77;79.83;;;;;;;;;;4973383;28;20224;-54
2022/11/18 06:27:42;;;;;;;326.53;69.27;;;;;;;;;;4983710;28;20228;-54
2022/11/18 06:30:09;;;;;;;309.07;66.33;;;;;;;;;;4972531;28;20215;-54
2022/11/18 06:32:35;;;;;;;257.80;55.23;;;;;;;;;;4976652;28;20224;-54
2022/11/18 06:35:01;;;;;;;402.83;88.90;;;;;;;;;;4980119;28;20235;-54
2022/11/18 06:37:27;;;;;;;284.17;57.83;;;;;;;;;;4985766;28;20689;-54
2022/11/18 06:39:53;;;;;;;287.30;53.63;;;;;;;;;;4987787;28;20430;-54
2022/11/18 06:45:04;;;;;;;327.43;68.67;;;;;;;;;;4977855;28;20235;-54
2022/11/18 06:47:30;;;;;;;101.57;22.20;;;;;;;;;;4987875;28;20208;-54
2022/11/18 06:49:56;;;;;;;157.87;32.77;;;;;;;;;;4989743;28;20311;-54
2022/11/18 06:52:23;;;;;;;293.13;58.00;;;;;;;;;;4984129;28;20259;-54
2022/11/18 06:54:49;;;;;;;395.17;79.30;;;;;;;;;;4979001;28;20212;-53
2022/11/18 06:57:15;;;;;;;265.10;53.87;;;;;;;;;;4983776;28;20195;-53
2022/11/18 06:59:41;;;;;;;261.20;49.53;;;;;;;;;;5000408;28;20189;-53
2022/11/18 07:02:07;;;;;;;284.87;59.43;;;;;;;;;;4976174;28;20231;-53
2022/11/18 07:04:38;;;;;;;280.00;55.80;;;;;;;;;;4976202;28;21432;-53
2022/11/18 07:07:04;;;;;;;235.43;48.87;;;;;;;;;;4972532;28;20209;-52
2022/11/18 07:09:30;;;;;;;109.07;24.07;;;;;;;;;;4988452;28;20271;-52
2022/11/18 07:11:56;;;;;;;282.43;55.33;;;;;;;;;;4986765;28;20287;-53
2022/11/18 07:14:22;;;;;;;266.33;51.67;;;;;;;;;;4980969;28;20303;-53
2022/11/18 07:16:48;;;;;;;377.70;81.07;;;;;;;;;;4976893;28;20429;-53
2022/11/18 07:19:14;;;;;;;322.27;63.87;;;;;;;;;;4956292;28;20424;-53
2022/11/18 07:21:40;;;;;;;358.10;67.00;;;;;;;;;;4987183;28;20212;-53
2022/11/18 07:24:07;;;;;;;272.20;56.23;;;;;;;;;;4976909;28;20184;-53
2022/11/18 07:26:33;;;;;;;392.20;83.67;;;;;;;;;;4986509;28;20657;-52
2022/11/18 07:28:59;;;;;;;197.30;41.83;;;;;;;;;;4963846;28;21687;-52
2022/11/18 07:31:25;;;;;;;188.50;37.03;;;;;;;;;;4974891;28;20227;-53
2022/11/18 07:33:54;;;;;;;330.37;67.33;;;;;;;;;;4981893;28;20282;-53
2022/11/18 07:36:21;;;;;;;179.87;35.90;;;;;;;;;;4985465;28;20200;-50
2022/11/18 07:38:48;;;;;;;308.23;64.07;;;;;;;;;;4993721;28;20648;-50
2022/11/18 07:41:15;;;;;;;343.30;75.63;;;;;;;;;;4979109;28;20762;-52
2022/11/18 07:43:41;;;;;;;188.77;41.20;;;;;;;;;;4975681;28;20247;-53
2022/11/18 07:46:09;;;;;;;132.70;28.80;;;;;;;;;;4976736;28;20796;-53
2022/11/18 07:48:36;;;;;;;362.57;75.67;;;;;;;;;;4961276;28;20271;-52
2022/11/18 07:51:04;;;;;;;352.53;72.13;;;;;;;;;;4948652;28;20195;-53
2022/11/18 07:53:30;;;;;;;295.40;63.23;;;;;;;;;;4971705;28;20229;-53
2022/11/18 07:55:56;;;;;;;406.27;86.03;;;;;;;;;;4976989;28;20390;-53
2022/11/18 07:58:22;;;;;;;220.93;47.83;;;;;;;;;;4976752;28;20216;-52
2022/11/18 08:00:48;;;;;;;383.40;75.93;;;;;;;;;;4977906;28;20278;-53
2022/11/18 08:03:14;;;;;;;206.47;39.90;;;;;;;;;;4980073;28;20209;-52
2022/11/18 08:05:40;;;;;;;196.60;41.80;;;;;;;;;;4986657;28;20189;-52
2022/11/18 08:08:06;;;;;;;344.47;65.80;;;;;;;;;;4980060;28;20249;-52
2022/11/18 08:10:32;;;;;;;325.20;66.27;;;;;;;;;;4983165;28;20655;-52
2022/11/18 08:12:58;;;;;;;295.70;54.53;;;;;;;;;;4985222;28;20226;-52
2022/11/18 08:15:24;;;;;;;281.37;57.53;;;;;;;;;;4981487;28;20652;-52
2022/11/18 08:17:50;;;;;;;324.57;60.00;;;;;;;;;;4992683;28;20215;-52
2022/11/18 08:20:16;;;;;;;277.37;55.60;;;;;;;;;;4983661;28;20224;-52
2022/11/18 08:22:42;;;;;;;399.10;86.37;;;;;;;;;;4990788;28;20216;-52
2022/11/18 08:25:08;;;;;;;166.67;34.90;;;;;;;;;;4989525;28;20299;-52
2022/11/18 08:27:34;;;;;;;150.13;30.40;;;;;;;;;;4982061;28;20901;-52
2022/11/18 08:30:00;;;;;;;367.80;75.83;;;;;;;;;;4990885;28;20474;-53
2022/11/18 08:32:26;;;;;;;318.37;68.63;;;;;;;;;;4984433;28;20228;-52
2022/11/18 08:34:52;;;;;;;384.07;79.40;;;;;;;;;;4988391;28;20213;-53
2022/11/18 08:37:18;;;;;;;188.40;40.50;;;;;;;;;;4990440;28;20267;-53
2022/11/18 08:39:44;;;;;;;217.20;47.77;;;;;;;;;;4985044;28;20225;-52
2022/11/18 08:42:10;;;;;;;191.33;41.37;;;;;;;;;;4984372;28;20519;-52
2022/11/18 08:44:36;;;;;;;360.23;74.97;;;;;;;;;;4983666;28;20287;-52
2022/11/18 08:47:02;;;;;;;384.80;78.70;;;;;;;;;;4968527;28;20236;-52
2022/11/18 08:49:28;;;;;;;284.20;55.67;;;;;;;;;;4981156;28;20213;-52
2022/11/18 08:51:54;;;;;;;291.83;54.67;;;;;;;;;;4990006;28;20228;-53
2022/11/18 08:54:20;;;;;;;136.27;30.73;;;;;;;;;;4996911;28;20177;-54
2022/11/18 08:56:49;;;;;;;295.60;54.40;;;;;;;;;;4990648;28;20195;-53
2022/11/18 08:59:15;;;;;;;228.40;45.53;;;;;;;;;;4988828;28;20212;-52
2022/11/18 09:01:42;;;;;;;178.47;35.67;;;;;;;;;;4993881;28;20213;-52
2022/11/18 09:04:08;;;;;;;285.80;51.00;;;;;;;;;;4990275;28;20216;-52
2022/11/18 09:06:34;;;;;;;227.80;41.83;;;;;;;;;;4991926;28;20623;-53
2022/11/18 09:09:00;;;;;;;363.23;70.20;;;;;;;;;;4993050;28;20177;-52
2022/11/18 09:11:27;;;;;;;267.70;52.97;;;;;;;;;;4986391;28;21352;-52
2022/11/18 09:13:57;;;;;;;355.93;66.83;;;;;;;;;;4989143;28;20228;-53
2022/11/18 09:16:27;;;;;;;217.97;42.90;;;;;;;;;;4996342;28;20277;-53
2022/11/18 09:18:54;;;;;;;323.13;65.30;;;;;;;;;;4982168;28;20293;-52
2022/11/18 09:21:20;;;;;;;113.37;23.87;;;;;;;;;;4982070;28;20196;-52
2022/11/18 09:23:46;;;;;;;312.60;59.83;;;;;;;;;;4976731;28;20189;-52
2022/11/18 09:26:13;;;;;;;264.77;50.83;;;;;;;;;;4983709;28;20559;-52
2022/11/18 09:28:40;;;;;;;341.47;67.63;;;;;;;;;;4983894;28;20564;-53
2022/11/18 09:31:10;;;;;;;215.57;41.30;;;;;;;;;;4978757;28;20573;-52
2022/11/18 09:33:36;;;;;;;167.90;34.40;;;;;;;;;;4983450;28;20213;-52
2022/11/18 09:36:03;;;;;;;164.83;34.07;;;;;;;;;;4982806;28;20193;-52
2022/11/18 09:38:29;;;;;;;224.77;46.47;;;;;;;;;;4986437;28;20224;-52
2022/11/18 09:41:14;;;;;;;377.57;79.10;;;;;;;;;;4979246;28;20223;-53
2022/11/18 09:43:47;;;;;;;248.97;47.27;;;;;;;;;;4976412;28;20229;-52
2022/11/18 09:46:26;;;;;;;445.07;93.30;;;;;;;;;;4974421;28;20891;-52
2022/11/18 09:51:44;;;;;;;322.13;69.47;;;;;;;;;;4963297;28;20351;-52
2022/11/18 09:54:12;;;;;;;263.27;46.83;;;;;;;;;;4953703;28;20218;-52
2022/11/18 09:56:39;;;;;;;276.60;51.13;;;;;;;;;;4978479;28;20225;-51
2022/11/18 09:59:05;;;;;;;348.03;62.77;;;;;;;;;;4975305;28;20628;-51
2022/11/18 10:01:31;;;;;;;350.47;64.83;;;;;;;;;;4977740;28;20248;-51
2022/11/18 10:03:57;;;;;;;281.83;55.43;;;;;;;;;;4989844;28;20664;-51
2022/11/18 10:06:32;;;;;;;362.20;67.90;;;;;;;;;;4976875;28;20284;-52
2022/11/18 10:09:05;;;;;;;175.33;34.00;;;;;;;;;;4993883;28;23990;-52
2022/11/18 10:11:34;;;;;;;325.70;63.93;;;;;;;;;;4979069;28;20224;-51
2022/11/18 10:14:18;;;;;;;299.03;56.87;;;;;;;;;;4976456;28;20711;-52
2022/11/18 10:16:59;;;;;;;201.97;41.37;;;;;;;;;;4988196;28;21710;-52
2022/11/18 10:19:52;;;;;;;352.90;73.97;;;;;;;;;;4977862;28;20526;-53
2022/11/18 10:22:18;;;;;;;219.90;42.90;;;;;;;;;;4975931;28;20217;-52
2022/11/18 10:24:51;;;;;;;248.17;45.80;;;;;;;;;;4974950;28;20858;-51
2022/11/18 10:27:17;;;;;;;252.57;52.47;;;;;;;;;;4959745;28;20404;-52
2022/11/18 10:29:44;;;;;;;342.77;70.63;;;;;;;;;;4967428;28;20238;-51
2022/11/18 10:32:14;;;;;;;285.70;60.50;;;;;;;;;;4962191;28;20990;-52
2022/11/18 10:34:50;;;;;;;243.77;52.90;;;;;;;;;;4966587;28;20241;-52
2022/11/18 10:37:30;;;;;;;374.00;68.47;;;;;;;;;;4978842;28;20773;-51
2022/11/18 10:39:56;;;;;;;355.07;68.77;;;;;;;;;;4960005;28;20516;-51
2022/11/18 10:42:33;;;;;;;316.00;54.17;;;;;;;;;;4961441;28;20212;-51
2022/11/18 10:45:14;;;;;;;341.50;64.67;;;;;;;;;;4983676;28;20181;-52
2022/11/18 10:47:40;;;;;;;236.90;41.40;;;;;;;;;;4993443;28;20215;-51
2022/11/18 10:50:27;;;;;;;114.37;22.47;;;;;;;;;;5002519;28;20223;-52
2022/11/18 10:52:53;;;;;;;90.77;19.73;;;;;;;;;;5016658;28;20239;-52
2022/11/18 10:55:21;;;;;;;121.03;25.17;;;;;;;;;;5013464;28;20255;-52
2022/11/18 10:57:48;;;;;;;96.47;20.63;;;;;;;;;;5019526;28;20236;-52
2022/11/18 11:00:32;;;;;;;127.67;26.30;;;;;;;;;;5004780;28;20276;-52
2022/11/18 11:02:58;;;;;;;133.13;27.53;;;;;;;;;;5015644;28;20207;-51
2022/11/18 11:05:25;;;;;;;131.67;28.27;;;;;;;;;;5014792;28;20208;-51
2022/11/18 11:08:01;;;;;;;104.83;21.70;;;;;;;;;;5009905;28;20274;-51
2022/11/18 11:10:27;;;;;;;124.87;25.93;;;;;;;;;;5012942;28;20211;-51
2022/11/18 11:13:13;;;;;;;100.83;21.83;;;;;;;;;;5014311;28;20238;-51
2022/11/18 11:15:42;;;;;;;172.50;35.83;;;;;;;;;;5013077;28;20217;-51
2022/11/18 11:21:01;;;;;;;75.00;16.10;;;;;;;;;;5006229;28;20440;-52
2022/11/18 11:23:28;;;;;;;87.73;18.47;;;;;;;;;;5021996;28;20296;-51
2022/11/18 11:25:57;;;;;;;130.33;26.57;;;;;;;;;;5011499;28;20705;-52
2022/11/18 11:28:45;;;;;;;102.17;20.50;;;;;;;;;;5016975;28;20322;-51
2022/11/18 11:31:23;;;;;;;87.60;18.60;;;;;;;;;;5011475;28;20250;-51
2022/11/18 11:33:58;;;;;;;103.87;21.40;;;;;;;;;;5012392;28;20599;-51
2022/11/18 11:36:36;;;;;;;81.23;17.73;;;;;;;;;;5006585;28;20175;-52
2022/11/18 11:39:08;;;;;;;117.60;24.10;;;;;;;;;;5004234;28;20181;-52
2022/11/18 11:41:40;;;;;;;91.67;19.13;;;;;;;;;;5002419;28;20228;-52
2022/11/18 11:44:09;;;;;;;98.47;20.47;;;;;;;;;;5003424;28;20216;-52
2022/11/18 11:49:55;;;;;;;323.30;59.47;;;;;;;;;;4962655;28;20305;-51
2022/11/18 11:52:36;;;;;;;339.83;61.47;;;;;;;;;;4978086;28;23361;-52
2022/11/18 11:55:02;;;;;;;391.90;77.60;;;;;;;;;;4983187;28;20740;-52
2022/11/18 11:57:46;;;;;;;549.63;107.37;;;;;;;;;;4968158;28;20196;-51
2022/11/18 12:00:13;;;;;;;424.33;77.97;;;;;;;;;;4966734;28;20226;-52
2022/11/18 12:03:01;;;;;;;228.40;45.13;;;;;;;;;;4973365;28;20585;-52
2022/11/18 12:05:29;;;;;;;384.10;68.73;;;;;;;;;;4968937;28;20267;-51
2022/11/18 12:07:57;;;;;;;190.53;37.73;;;;;;;;;;4931648;28;20213;-51
2022/11/18 12:10:26;;;;;;;515.13;102.27;;;;;;;;;;4966358;28;20220;-51
2022/11/18 12:12:55;;;;;;;158.27;32.17;;;;;;;;;;4961447;28;20236;-52
2022/11/18 12:15:24;;;;;;;296.30;61.63;;;;;;;;;;4974691;28;20181;-51
2022/11/18 12:17:56;;;;;;;460.87;90.40;;;;;;;;;;4958125;28;20189;-51
2022/11/18 12:20:39;;;;;;;250.03;46.37;;;;;;;;;;4960009;28;20271;-51
2022/11/18 12:23:09;;;;;;;129.73;24.93;;;;;;;;;;4993969;28;20217;-52
2022/11/18 12:25:47;;;;;;;356.70;65.43;;;;;;;;;;4988683;28;20248;-51
2022/11/18 12:28:22;;;;;;;332.57;58.97;;;;;;;;;;4982387;28;20385;-51
2022/11/18 12:30:48;;;;;;;231.47;41.33;;;;;;;;;;4987234;28;20212;-52
2022/11/18 12:33:15;;;;;;;103.33;22.07;;;;;;;;;;4997699;28;20266;-52
2022/11/18 12:35:46;;;;;;;248.00;46.90;;;;;;;;;;4975074;28;20189;-51
2022/11/18 12:38:27;;;;;;;381.07;72.37;;;;;;;;;;4958343;28;20213;-51
2022/11/18 12:40:53;;;;;;;514.17;95.73;;;;;;;;;;4965473;28;20278;-52
2022/11/18 12:46:10;;;;;;;402.57;84.20;;;;;;;;;;4975139;28;20224;-51
2022/11/18 12:48:37;;;;;;;347.33;64.33;;;;;;;;;;4977358;28;20692;-52
2022/11/18 12:51:17;;;;;;;422.97;84.30;;;;;;;;;;4959989;28;20193;-51
2022/11/18 12:53:43;;;;;;;103.70;22.40;;;;;;;;;;4984623;28;21626;-51
2022/11/18 12:56:18;;;;;;;178.17;37.90;;;;;;;;;;4978268;28;20212;-52
2022/11/18 12:58:45;;;;;;;307.17;54.87;;;;;;;;;;4971225;28;20224;-52
2022/11/18 13:01:12;;;;;;;433.00;81.93;;;;;;;;;;4961298;28;20206;-52
2022/11/18 13:03:38;;;;;;;280.53;55.90;;;;;;;;;;4978144;28;20209;-52
2022/11/18 13:06:06;;;;;;;361.53;75.30;;;;;;;;;;4988239;28;20487;-52
2022/11/18 13:08:33;;;;;;;285.70;62.83;;;;;;;;;;4969858;28;20316;-51
2022/11/18 13:17:50;;;;;;;351.63;64.13;;;;;;;;;;4994025;28;20232;-52
2022/11/18 13:19:35;;;;;;;315.40;61.60;;;;;;;;;;4931207;28;20292;-51
2022/11/18 13:24:52;;;;;;;281.33;54.97;;;;;;;;;;4986943;28;20304;-52
2022/11/18 13:27:29;;;;;;;118.03;24.27;;;;;;;;;;4984275;28;21170;-52
2022/11/18 13:30:02;;;;;;;377.27;68.73;;;;;;;;;;4973250;28;20239;-51
2022/11/18 13:32:29;;;;;;;347.07;62.67;;;;;;;;;;4980103;28;20247;-51
2022/11/18 13:34:56;;;;;;;151.47;30.30;;;;;;;;;;4993581;28;20204;-51
2022/11/18 13:37:23;;;;;;;382.53;72.67;;;;;;;;;;4985584;28;20259;-51
2022/11/18 13:39:49;;;;;;;224.13;41.97;;;;;;;;;;4987738;28;20981;-51
2022/11/18 13:42:23;;;;;;;258.40;50.07;;;;;;;;;;4980050;28;20231;-52
2022/11/18 13:44:52;;;;;;;343.20;67.93;;;;;;;;;;4987437;28;20606;-52
2022/11/18 13:47:27;;;;;;;300.23;59.13;;;;;;;;;;4968928;28;20209;-52
2022/11/18 13:50:12;;;;;;;134.47;29.30;;;;;;;;;;4990721;28;20507;-52
2022/11/18 13:52:38;;;;;;;257.80;53.40;;;;;;;;;;4980498;28;20315;-52
2022/11/18 13:55:09;;;;;;;364.70;74.67;;;;;;;;;;4993622;28;20335;-52
2022/11/18 13:57:36;;;;;;;416.50;83.73;;;;;;;;;;4994953;28;20365;-52
2022/11/18 14:00:05;;;;;;;291.60;53.63;;;;;;;;;;4966245;28;20552;-51
2022/11/18 14:02:32;;;;;;;218.43;47.13;;;;;;;;;;4973147;28;20224;-52
2022/11/18 14:04:59;;;;;;;263.07;54.60;;;;;;;;;;4981131;28;20716;-51
2022/11/18 14:07:27;;;;;;;224.43;42.87;;;;;;;;;;4988366;28;20240;-51
2022/11/18 14:09:57;;;;;;;399.37;86.33;;;;;;;;;;4977786;28;20288;-51
2022/11/18 14:12:28;;;;;;;251.87;52.87;;;;;;;;;;4980923;28;23440;-51
2022/11/18 14:15:11;;;;;;;213.30;41.67;;;;;;;;;;4977552;28;20624;-51
2022/11/18 14:17:37;;;;;;;223.17;42.00;;;;;;;;;;4993671;28;20212;-52
2022/11/18 14:20:08;;;;;;;370.57;76.37;;;;;;;;;;4988612;28;20224;-52
2022/11/18 14:22:34;;;;;;;405.33;79.67;;;;;;;;;;4982242;28;20224;-52
2022/11/18 14:25:06;;;;;;;286.73;58.33;;;;;;;;;;4984344;28;21700;-52
2022/11/18 14:27:35;;;;;;;263.70;57.37;;;;;;;;;;4966620;28;20224;-51
2022/11/18 14:30:01;;;;;;;212.13;45.20;;;;;;;;;;4985794;28;20204;-52
2022/11/18 14:32:27;;;;;;;389.83;76.07;;;;;;;;;;4988416;28;20461;-51
2022/11/18 14:35:00;;;;;;;277.30;54.97;;;;;;;;;;4997890;28;20216;-52
2022/11/18 14:37:26;;;;;;;426.13;87.03;;;;;;;;;;4992203;28;20263;-51
2022/11/18 14:39:56;;;;;;;245.73;53.40;;;;;;;;;;4965759;28;20681;-51
2022/11/18 14:42:22;;;;;;;427.50;92.67;;;;;;;;;;4963946;28;20201;-52